sensor_id;sensor_type;location;lat;lon;timestamp;pressure;altitude;pressure_sealevel;temperature;humidity
37904;BME280;23738;50.422;18.758;2023-03-03T00:00:16;98785.63;;;-1.36;63.11
37904;BME280;23738;50.422;18.758;2023-03-03T00:02:43;98779.30;;;-1.35;63.06
37904;BME280;23738;50.422;18.758;2023-03-03T00:05:10;98776.34;;;-1.32;63.30
37904;BME280;23738;50.422;18.758;2023-03-03T00:07:43;98777.48;;;-1.27;63.50
37904;BME280;23738;50.422;18.758;2023-03-03T00:10:12;98775.35;;;-1.27;63.55
37904;BME280;23738;50.422;18.758;2023-03-03T00:12:46;98776.11;;;-1.25;63.62
37904;BME280;23738;50.422;18.758;2023-03-03T00:15:16;98779.10;;;-1.26;63.77
37904;BME280;23738;50.422;18.758;2023-03-03T00:17:43;98776.90;;;-1.29;63.56
37904;BME280;23738;50.422;18.758;2023-03-03T00:20:30;98777.31;;;-1.34;63.64
37904;BME280;23738;50.422;18.758;2023-03-03T00:23:12;98779.89;;;-1.40;63.82
37904;BME280;23738;50.422;18.758;2023-03-03T00:25:44;98784.52;;;-1.47;63.96
37904;BME280;23738;50.422;18.758;2023-03-03T00:28:21;98782.29;;;-1.51;63.82
37904;BME280;23738;50.422;18.758;2023-03-03T00:30:49;98781.48;;;-1.57;63.88
37904;BME280;23738;50.422;18.758;2023-03-03T00:33:24;98782.17;;;-1.61;63.93
37904;BME280;23738;50.422;18.758;2023-03-03T00:35:55;98784.51;;;-1.67;63.78
37904;BME280;23738;50.422;18.758;2023-03-03T00:38:23;98786.78;;;-1.72;64.01
37904;BME280;23738;50.422;18.758;2023-03-03T00:40:50;98786.45;;;-1.76;63.92
37904;BME280;23738;50.422;18.758;2023-03-03T00:43:19;98786.67;;;-1.79;63.61
37904;BME280;23738;50.422;18.758;2023-03-03T00:45:48;98787.76;;;-1.80;63.69
37904;BME280;23738;50.422;18.758;2023-03-03T00:48:27;98788.05;;;-1.77;63.75
37904;BME280;23738;50.422;18.758;2023-03-03T00:50:56;98791.52;;;-1.75;63.81
37904;BME280;23738;50.422;18.758;2023-03-03T00:53:25;98788.44;;;-1.73;63.95
37904;BME280;23738;50.422;18.758;2023-03-03T00:55:53;98788.21;;;-1.72;64.03
37904;BME280;23738;50.422;18.758;2023-03-03T00:58:21;98777.59;;;-1.74;63.89
37904;BME280;23738;50.422;18.758;2023-03-03T01:00:50;98776.12;;;-1.75;64.08
37904;BME280;23738;50.422;18.758;2023-03-03T01:03:20;98777.48;;;-1.76;64.16
37904;BME280;23738;50.422;18.758;2023-03-03T01:05:48;98772.46;;;-1.78;64.28
37904;BME280;23738;50.422;18.758;2023-03-03T01:08:16;98770.77;;;-1.81;64.27
37904;BME280;23738;50.422;18.758;2023-03-03T01:10:47;98770.02;;;-1.87;64.39
37904;BME280;23738;50.422;18.758;2023-03-03T01:13:17;98771.83;;;-1.93;64.40
37904;BME280;23738;50.422;18.758;2023-03-03T01:15:45;98768.02;;;-2.00;64.31
37904;BME280;23738;50.422;18.758;2023-03-03T01:18:12;98771.16;;;-2.05;64.38
37904;BME280;23738;50.422;18.758;2023-03-03T01:20:40;98767.70;;;-2.09;64.40
37904;BME280;23738;50.422;18.758;2023-03-03T01:23:08;98764.61;;;-2.14;64.32
37904;BME280;23738;50.422;18.758;2023-03-03T01:25:35;98755.67;;;-2.19;64.40
37904;BME280;23738;50.422;18.758;2023-03-03T01:28:03;98750.77;;;-2.22;64.31
37904;BME280;23738;50.422;18.758;2023-03-03T01:30:31;98750.40;;;-2.23;64.22
37904;BME280;23738;50.422;18.758;2023-03-03T01:32:59;98744.61;;;-2.21;64.29
37904;BME280;23738;50.422;18.758;2023-03-03T01:35:26;98744.36;;;-2.13;64.59
37904;BME280;23738;50.422;18.758;2023-03-03T01:37:53;98742.92;;;-2.10;64.53
37904;BME280;23738;50.422;18.758;2023-03-03T01:40:22;98741.34;;;-2.10;64.62
37904;BME280;23738;50.422;18.758;2023-03-03T01:42:50;98743.98;;;-2.13;64.70
37904;BME280;23738;50.422;18.758;2023-03-03T01:45:22;98746.95;;;-2.17;64.75
37904;BME280;23738;50.422;18.758;2023-03-03T01:47:54;98740.17;;;-2.22;64.97
37904;BME280;23738;50.422;18.758;2023-03-03T01:50:30;98736.34;;;-2.26;64.97
37904;BME280;23738;50.422;18.758;2023-03-03T01:52:59;98738.17;;;-2.30;65.09
37904;BME280;23738;50.422;18.758;2023-03-03T01:55:31;98736.20;;;-2.34;65.01
37904;BME280;23738;50.422;18.758;2023-03-03T01:58:03;98736.59;;;-2.36;65.11
37904;BME280;23738;50.422;18.758;2023-03-03T02:00:33;98736.71;;;-2.40;64.97
37904;BME280;23738;50.422;18.758;2023-03-03T02:03:02;98737.46;;;-2.44;65.13
37904;BME280;23738;50.422;18.758;2023-03-03T02:05:29;98742.39;;;-2.47;65.11
37904;BME280;23738;50.422;18.758;2023-03-03T02:07:57;98743.04;;;-2.48;65.03
37904;BME280;23738;50.422;18.758;2023-03-03T02:10:26;98739.69;;;-2.48;65.00
37904;BME280;23738;50.422;18.758;2023-03-03T02:12:57;98738.67;;;-2.46;64.97
37904;BME280;23738;50.422;18.758;2023-03-03T02:15:26;98735.02;;;-2.43;65.14
37904;BME280;23738;50.422;18.758;2023-03-03T02:17:55;98738.02;;;-2.41;65.27
37904;BME280;23738;50.422;18.758;2023-03-03T02:20:34;98737.81;;;-2.43;65.45
37904;BME280;23738;50.422;18.758;2023-03-03T02:23:07;98744.27;;;-2.45;65.65
37904;BME280;23738;50.422;18.758;2023-03-03T02:25:44;98750.88;;;-2.47;65.85
37904;BME280;23738;50.422;18.758;2023-03-03T02:28:16;98752.31;;;-2.53;65.97
37904;BME280;23738;50.422;18.758;2023-03-03T02:30:43;98753.92;;;-2.58;65.93
37904;BME280;23738;50.422;18.758;2023-03-03T02:33:10;98758.06;;;-2.63;66.06
37904;BME280;23738;50.422;18.758;2023-03-03T02:35:39;98752.36;;;-2.67;66.04
37904;BME280;23738;50.422;18.758;2023-03-03T02:38:23;98749.75;;;-2.70;65.90
37904;BME280;23738;50.422;18.758;2023-03-03T02:40:59;98747.47;;;-2.69;65.70
37904;BME280;23738;50.422;18.758;2023-03-03T02:43:35;98747.98;;;-2.64;65.81
37904;BME280;23738;50.422;18.758;2023-03-03T02:46:03;98749.06;;;-2.60;66.04
37904;BME280;23738;50.422;18.758;2023-03-03T02:48:30;98745.27;;;-2.63;66.34
37904;BME280;23738;50.422;18.758;2023-03-03T02:50:57;98744.44;;;-2.65;66.20
37904;BME280;23738;50.422;18.758;2023-03-03T02:53:24;98749.48;;;-2.68;66.39
37904;BME280;23738;50.422;18.758;2023-03-03T02:55:52;98748.61;;;-2.73;66.57
37904;BME280;23738;50.422;18.758;2023-03-03T02:58:19;98752.43;;;-2.76;66.61
37904;BME280;23738;50.422;18.758;2023-03-03T03:00:46;98754.95;;;-2.77;66.56
37904;BME280;23738;50.422;18.758;2023-03-03T03:03:13;98764.62;;;-2.80;66.67
37904;BME280;23738;50.422;18.758;2023-03-03T03:05:41;98762.98;;;-2.81;66.68
37904;BME280;23738;50.422;18.758;2023-03-03T03:08:08;98757.91;;;-2.82;66.59
37904;BME280;23738;50.422;18.758;2023-03-03T03:10:35;98753.41;;;-2.82;66.46
37904;BME280;23738;50.422;18.758;2023-03-03T03:13:03;98751.43;;;-2.81;66.30
37904;BME280;23738;50.422;18.758;2023-03-03T03:15:30;98754.50;;;-2.78;66.38
37904;BME280;23738;50.422;18.758;2023-03-03T03:17:57;98752.29;;;-2.76;66.45
37904;BME280;23738;50.422;18.758;2023-03-03T03:20:26;98747.98;;;-2.74;66.56
37904;BME280;23738;50.422;18.758;2023-03-03T03:22:53;98743.71;;;-2.72;66.68
37904;BME280;23738;50.422;18.758;2023-03-03T03:25:20;98739.19;;;-2.72;66.72
37904;BME280;23738;50.422;18.758;2023-03-03T03:27:47;98739.90;;;-2.72;66.71
37904;BME280;23738;50.422;18.758;2023-03-03T03:30:15;98730.79;;;-2.72;66.74
37904;BME280;23738;50.422;18.758;2023-03-03T03:32:43;98724.38;;;-2.74;66.60
37904;BME280;23738;50.422;18.758;2023-03-03T03:35:10;98716.55;;;-2.82;66.70
37904;BME280;23738;50.422;18.758;2023-03-03T03:37:37;98722.32;;;-2.79;66.63
37904;BME280;23738;50.422;18.758;2023-03-03T03:40:06;98718.56;;;-2.84;66.62
37904;BME280;23738;50.422;18.758;2023-03-03T03:42:33;98722.71;;;-2.89;66.60
37904;BME280;23738;50.422;18.758;2023-03-03T03:45:01;98728.81;;;-2.95;66.58
37904;BME280;23738;50.422;18.758;2023-03-03T03:47:28;98728.39;;;-3.00;66.52
37904;BME280;23738;50.422;18.758;2023-03-03T03:49:55;98732.48;;;-3.07;66.45
37904;BME280;23738;50.422;18.758;2023-03-03T03:52:22;98732.13;;;-3.12;66.36
37904;BME280;23738;50.422;18.758;2023-03-03T03:54:50;98738.67;;;-3.15;66.25
37904;BME280;23738;50.422;18.758;2023-03-03T03:57:17;98738.76;;;-3.13;66.31
37904;BME280;23738;50.422;18.758;2023-03-03T03:59:45;98738.21;;;-3.11;66.46
37904;BME280;23738;50.422;18.758;2023-03-03T04:02:12;98734.64;;;-3.09;66.47
37904;BME280;23738;50.422;18.758;2023-03-03T04:04:39;98734.50;;;-3.09;66.56
37904;BME280;23738;50.422;18.758;2023-03-03T04:07:06;98738.05;;;-3.11;66.71
37904;BME280;23738;50.422;18.758;2023-03-03T04:09:34;98738.23;;;-3.13;66.72
37904;BME280;23738;50.422;18.758;2023-03-03T04:12:01;98730.59;;;-3.15;66.82
37904;BME280;23738;50.422;18.758;2023-03-03T04:14:29;98731.08;;;-3.17;66.85
37904;BME280;23738;50.422;18.758;2023-03-03T04:16:56;98732.44;;;-3.19;66.87
37904;BME280;23738;50.422;18.758;2023-03-03T04:19:24;98733.03;;;-3.22;66.99
37904;BME280;23738;50.422;18.758;2023-03-03T04:21:51;98736.19;;;-3.26;66.91
37904;BME280;23738;50.422;18.758;2023-03-03T04:24:18;98737.99;;;-3.29;67.03
37904;BME280;23738;50.422;18.758;2023-03-03T04:26:45;98743.77;;;-3.30;66.88
37904;BME280;23738;50.422;18.758;2023-03-03T04:29:13;98753.92;;;-3.33;67.29
37904;BME280;23738;50.422;18.758;2023-03-03T04:31:40;98755.36;;;-3.38;67.09
37904;BME280;23738;50.422;18.758;2023-03-03T04:34:07;98762.69;;;-3.37;67.03
37904;BME280;23738;50.422;18.758;2023-03-03T04:36:35;98755.56;;;-3.34;67.43
37904;BME280;23738;50.422;18.758;2023-03-03T04:39:02;98748.83;;;-3.36;67.55
37904;BME280;23738;50.422;18.758;2023-03-03T04:41:29;98745.25;;;-3.39;67.64
37904;BME280;23738;50.422;18.758;2023-03-03T04:43:56;98746.22;;;-3.40;67.79
37904;BME280;23738;50.422;18.758;2023-03-03T04:46:24;98755.64;;;-3.37;67.77
37904;BME280;23738;50.422;18.758;2023-03-03T04:48:51;98756.55;;;-3.36;68.07
37904;BME280;23738;50.422;18.758;2023-03-03T04:51:18;98753.31;;;-3.36;67.97
37904;BME280;23738;50.422;18.758;2023-03-03T04:53:45;98760.33;;;-3.36;67.97
37904;BME280;23738;50.422;18.758;2023-03-03T04:56:13;98769.45;;;-3.38;67.99
37904;BME280;23738;50.422;18.758;2023-03-03T04:58:40;98771.41;;;-3.39;67.99
37904;BME280;23738;50.422;18.758;2023-03-03T05:01:09;98768.27;;;-3.38;68.11
37904;BME280;23738;50.422;18.758;2023-03-03T05:03:37;98769.39;;;-3.35;68.00
37904;BME280;23738;50.422;18.758;2023-03-03T05:06:06;98764.79;;;-3.26;68.16
37904;BME280;23738;50.422;18.758;2023-03-03T05:08:33;98772.23;;;-3.19;68.38
37904;BME280;23738;50.422;18.758;2023-03-03T05:11:00;98772.68;;;-3.13;68.61
37904;BME280;23738;50.422;18.758;2023-03-03T05:13:28;98778.99;;;-3.12;68.67
37904;BME280;23738;50.422;18.758;2023-03-03T05:15:56;98778.45;;;-3.09;68.56
37904;BME280;23738;50.422;18.758;2023-03-03T05:18:24;98768.46;;;-3.09;68.67
37904;BME280;23738;50.422;18.758;2023-03-03T05:20:52;98770.20;;;-3.10;68.66
37904;BME280;23738;50.422;18.758;2023-03-03T05:23:20;98774.00;;;-3.07;68.56
37904;BME280;23738;50.422;18.758;2023-03-03T05:25:48;98771.63;;;-3.03;68.56
37904;BME280;23738;50.422;18.758;2023-03-03T05:28:16;98777.88;;;-2.96;68.78
37904;BME280;23738;50.422;18.758;2023-03-03T05:30:44;98783.94;;;-2.92;68.80
37904;BME280;23738;50.422;18.758;2023-03-03T05:33:13;98789.77;;;-2.92;68.89
37904;BME280;23738;50.422;18.758;2023-03-03T05:35:41;98787.70;;;-2.87;68.91
37904;BME280;23738;50.422;18.758;2023-03-03T05:38:09;98795.47;;;-2.84;69.25
37904;BME280;23738;50.422;18.758;2023-03-03T05:40:37;98792.96;;;-2.86;69.22
37904;BME280;23738;50.422;18.758;2023-03-03T05:43:04;98790.66;;;-2.85;69.25
37904;BME280;23738;50.422;18.758;2023-03-03T05:45:32;98798.02;;;-2.86;69.38
37904;BME280;23738;50.422;18.758;2023-03-03T05:48:00;98808.83;;;-2.93;69.26
37904;BME280;23738;50.422;18.758;2023-03-03T05:50:29;98825.45;;;-2.94;69.13
37904;BME280;23738;50.422;18.758;2023-03-03T05:52:56;98821.77;;;-2.93;69.13
37904;BME280;23738;50.422;18.758;2023-03-03T05:55:24;98829.52;;;-2.93;70.09
37904;BME280;23738;50.422;18.758;2023-03-03T05:57:51;98827.55;;;-2.96;69.80
37904;BME280;23738;50.422;18.758;2023-03-03T06:00:20;98816.64;;;-2.98;69.67
37904;BME280;23738;50.422;18.758;2023-03-03T06:02:47;98802.20;;;-2.94;69.64
37904;BME280;23738;50.422;18.758;2023-03-03T06:05:15;98801.40;;;-2.88;69.83
37904;BME280;23738;50.422;18.758;2023-03-03T06:07:42;98809.50;;;-2.83;69.89
37904;BME280;23738;50.422;18.758;2023-03-03T06:10:11;98806.08;;;-2.88;69.87
37904;BME280;23738;50.422;18.758;2023-03-03T06:12:38;98816.04;;;-2.85;69.77
37904;BME280;23738;50.422;18.758;2023-03-03T06:15:09;98826.67;;;-2.82;70.01
37904;BME280;23738;50.422;18.758;2023-03-03T06:17:37;98839.94;;;-2.82;70.02
37904;BME280;23738;50.422;18.758;2023-03-03T06:20:07;98838.26;;;-2.80;69.91
37904;BME280;23738;50.422;18.758;2023-03-03T06:22:35;98833.48;;;-2.74;70.66
37904;BME280;23738;50.422;18.758;2023-03-03T06:25:03;98834.77;;;-2.70;70.48
37904;BME280;23738;50.422;18.758;2023-03-03T06:27:30;98827.95;;;-2.69;70.41
37904;BME280;23738;50.422;18.758;2023-03-03T06:29:57;98829.01;;;-2.66;70.44
37904;BME280;23738;50.422;18.758;2023-03-03T06:32:24;98833.65;;;-2.66;70.51
37904;BME280;23738;50.422;18.758;2023-03-03T06:34:52;98827.66;;;-2.67;70.69
37904;BME280;23738;50.422;18.758;2023-03-03T06:37:19;98828.67;;;-2.64;70.74
37904;BME280;23738;50.422;18.758;2023-03-03T06:39:46;98825.17;;;-2.61;70.73
37904;BME280;23738;50.422;18.758;2023-03-03T06:42:14;98827.52;;;-2.58;70.40
37904;BME280;23738;50.422;18.758;2023-03-03T06:44:41;98831.63;;;-2.53;70.45
37904;BME280;23738;50.422;18.758;2023-03-03T06:47:08;98836.44;;;-2.47;70.64
37904;BME280;23738;50.422;18.758;2023-03-03T06:49:36;98830.10;;;-2.44;70.69
37904;BME280;23738;50.422;18.758;2023-03-03T06:52:10;98820.04;;;-2.33;70.78
37904;BME280;23738;50.422;18.758;2023-03-03T06:54:38;98809.10;;;-2.28;70.88
37904;BME280;23738;50.422;18.758;2023-03-03T06:57:15;98805.24;;;-2.19;71.09
37904;BME280;23738;50.422;18.758;2023-03-03T06:59:42;98799.96;;;-2.16;71.07
37904;BME280;23738;50.422;18.758;2023-03-03T07:02:15;98808.38;;;-2.18;71.37
37904;BME280;23738;50.422;18.758;2023-03-03T07:04:43;98801.28;;;-2.17;71.16
37904;BME280;23738;50.422;18.758;2023-03-03T07:07:16;98801.45;;;-2.15;71.13
37904;BME280;23738;50.422;18.758;2023-03-03T07:09:44;98814.30;;;-2.09;71.31
37904;BME280;23738;50.422;18.758;2023-03-03T07:12:15;98813.63;;;-2.10;71.25
37904;BME280;23738;50.422;18.758;2023-03-03T07:14:46;98825.39;;;-2.01;71.39
37904;BME280;23738;50.422;18.758;2023-03-03T07:17:16;98830.79;;;-1.94;71.56
37904;BME280;23738;50.422;18.758;2023-03-03T07:19:44;98833.68;;;-1.89;71.55
37904;BME280;23738;50.422;18.758;2023-03-03T07:22:15;98832.04;;;-1.83;71.56
37904;BME280;23738;50.422;18.758;2023-03-03T07:24:45;98824.52;;;-1.77;71.82
37904;BME280;23738;50.422;18.758;2023-03-03T07:27:18;98821.32;;;-1.70;72.01
37904;BME280;23738;50.422;18.758;2023-03-03T07:29:50;98824.93;;;-1.65;71.88
37904;BME280;23738;50.422;18.758;2023-03-03T07:32:36;98814.80;;;-1.63;71.87
37904;BME280;23738;50.422;18.758;2023-03-03T07:35:16;98822.99;;;-1.55;71.65
37904;BME280;23738;50.422;18.758;2023-03-03T07:37:50;98839.23;;;-1.53;71.70
37904;BME280;23738;50.422;18.758;2023-03-03T07:40:33;98852.77;;;-1.46;71.68
37904;BME280;23738;50.422;18.758;2023-03-03T07:43:16;98860.84;;;-1.44;71.99
37904;BME280;23738;50.422;18.758;2023-03-03T07:45:48;98860.59;;;-1.45;72.09
37904;BME280;23738;50.422;18.758;2023-03-03T07:48:22;98853.19;;;-1.41;72.24
37904;BME280;23738;50.422;18.758;2023-03-03T07:50:50;98854.02;;;-1.36;72.51
37904;BME280;23738;50.422;18.758;2023-03-03T07:53:25;98855.17;;;-1.35;72.45
37904;BME280;23738;50.422;18.758;2023-03-03T07:55:53;98847.15;;;-1.36;72.79
37904;BME280;23738;50.422;18.758;2023-03-03T07:58:23;98840.31;;;-1.37;72.73
37904;BME280;23738;50.422;18.758;2023-03-03T08:03:52;98840.94;;;-1.28;72.64
37904;BME280;23738;50.422;18.758;2023-03-03T08:06:41;98838.90;;;-1.22;72.70
37904;BME280;23738;50.422;18.758;2023-03-03T08:09:35;98836.23;;;-1.16;72.93
37904;BME280;23738;50.422;18.758;2023-03-03T08:12:21;98841.23;;;-1.11;73.41
37904;BME280;23738;50.422;18.758;2023-03-03T08:14:51;98841.38;;;-1.11;73.72
37904;BME280;23738;50.422;18.758;2023-03-03T08:17:21;98843.16;;;-1.12;73.36
37904;BME280;23738;50.422;18.758;2023-03-03T08:19:50;98848.34;;;-1.12;73.47
37904;BME280;23738;50.422;18.758;2023-03-03T08:22:22;98857.55;;;-1.10;73.55
37904;BME280;23738;50.422;18.758;2023-03-03T08:24:51;98862.30;;;-1.07;73.33
37904;BME280;23738;50.422;18.758;2023-03-03T08:27:18;98874.54;;;-1.04;73.56
37904;BME280;23738;50.422;18.758;2023-03-03T08:29:45;98877.70;;;-1.01;73.80
37904;BME280;23738;50.422;18.758;2023-03-03T08:32:12;98872.80;;;-1.00;74.46
37904;BME280;23738;50.422;18.758;2023-03-03T08:34:39;98865.30;;;-1.01;73.99
37904;BME280;23738;50.422;18.758;2023-03-03T08:37:07;98861.88;;;-1.02;74.29
37904;BME280;23738;50.422;18.758;2023-03-03T08:39:34;98861.13;;;-1.01;74.10
37904;BME280;23738;50.422;18.758;2023-03-03T08:42:02;98857.16;;;-0.98;74.12
37904;BME280;23738;50.422;18.758;2023-03-03T08:44:29;98856.24;;;-0.96;74.02
37904;BME280;23738;50.422;18.758;2023-03-03T08:46:56;98853.11;;;-0.93;74.31
37904;BME280;23738;50.422;18.758;2023-03-03T08:49:23;98842.27;;;-0.92;73.93
37904;BME280;23738;50.422;18.758;2023-03-03T08:51:50;98840.59;;;-0.88;74.17
37904;BME280;23738;50.422;18.758;2023-03-03T08:54:18;98842.96;;;-0.85;74.60
37904;BME280;23738;50.422;18.758;2023-03-03T08:56:45;98844.03;;;-0.81;74.09
37904;BME280;23738;50.422;18.758;2023-03-03T08:59:12;98849.23;;;-0.77;74.24
37904;BME280;23738;50.422;18.758;2023-03-03T09:01:39;98847.02;;;-0.73;74.01
37904;BME280;23738;50.422;18.758;2023-03-03T09:04:09;98844.56;;;-0.68;74.51
37904;BME280;23738;50.422;18.758;2023-03-03T09:06:36;98840.89;;;-0.65;74.03
37904;BME280;23738;50.422;18.758;2023-03-03T09:09:04;98840.26;;;-0.62;74.35
37904;BME280;23738;50.422;18.758;2023-03-03T09:11:31;98843.05;;;-0.58;74.62
37904;BME280;23738;50.422;18.758;2023-03-03T09:14:06;98841.46;;;-0.57;74.46
37904;BME280;23738;50.422;18.758;2023-03-03T09:16:37;98835.83;;;-0.54;74.27
37904;BME280;23738;50.422;18.758;2023-03-03T09:19:17;98832.86;;;-0.47;74.40
37904;BME280;23738;50.422;18.758;2023-03-03T09:21:46;98838.17;;;-0.40;74.39
37904;BME280;23738;50.422;18.758;2023-03-03T09:24:19;98837.45;;;-0.36;74.60
37904;BME280;23738;50.422;18.758;2023-03-03T09:26:50;98845.38;;;-0.35;74.61
37904;BME280;23738;50.422;18.758;2023-03-03T09:29:24;98850.08;;;-0.35;74.84
37904;BME280;23738;50.422;18.758;2023-03-03T09:31:53;98851.11;;;-0.38;74.87
37904;BME280;23738;50.422;18.758;2023-03-03T09:34:23;98855.97;;;-0.40;75.19
37904;BME280;23738;50.422;18.758;2023-03-03T09:36:52;98849.52;;;-0.40;74.73
37904;BME280;23738;50.422;18.758;2023-03-03T09:39:21;98851.80;;;-0.35;74.52
37904;BME280;23738;50.422;18.758;2023-03-03T09:42:19;98851.99;;;-0.31;74.71
37904;BME280;23738;50.422;18.758;2023-03-03T09:45:10;98851.05;;;-0.28;74.68
37904;BME280;23738;50.422;18.758;2023-03-03T09:48:05;98844.06;;;-0.25;75.22
37904;BME280;23738;50.422;18.758;2023-03-03T09:50:43;98839.81;;;-0.26;74.89
37904;BME280;23738;50.422;18.758;2023-03-03T09:53:21;98847.36;;;-0.25;74.75
37904;BME280;23738;50.422;18.758;2023-03-03T09:55:58;98843.14;;;-0.25;74.82
37904;BME280;23738;50.422;18.758;2023-03-03T09:58:43;98848.46;;;-0.20;74.74
37904;BME280;23738;50.422;18.758;2023-03-03T10:01:32;98853.77;;;-0.13;74.82
37904;BME280;23738;50.422;18.758;2023-03-03T10:04:13;98857.98;;;-0.08;75.02
37904;BME280;23738;50.422;18.758;2023-03-03T10:06:44;98866.09;;;-0.07;74.99
37904;BME280;23738;50.422;18.758;2023-03-03T10:09:37;98868.52;;;-0.09;75.47
37904;BME280;23738;50.422;18.758;2023-03-03T10:12:12;98874.33;;;-0.10;75.43
37904;BME280;23738;50.422;18.758;2023-03-03T10:14:53;98876.36;;;-0.12;75.45
37904;BME280;23738;50.422;18.758;2023-03-03T10:17:37;98872.55;;;-0.10;75.09
37904;BME280;23738;50.422;18.758;2023-03-03T10:20:24;98875.78;;;-0.03;75.17
37904;BME280;23738;50.422;18.758;2023-03-03T10:22:55;98871.74;;;0.00;75.34
37904;BME280;23738;50.422;18.758;2023-03-03T10:25:34;98872.27;;;0.03;75.26
37904;BME280;23738;50.422;18.758;2023-03-03T10:28:20;98872.70;;;0.03;75.63
37904;BME280;23738;50.422;18.758;2023-03-03T10:31:03;98878.98;;;0.01;75.82
37904;BME280;23738;50.422;18.758;2023-03-03T10:33:38;98874.68;;;-0.02;75.45
37904;BME280;23738;50.422;18.758;2023-03-03T10:36:23;98878.06;;;0.02;75.46
37904;BME280;23738;50.422;18.758;2023-03-03T10:39:11;98878.58;;;0.06;75.65
37904;BME280;23738;50.422;18.758;2023-03-03T10:41:50;98882.39;;;0.06;76.17
37904;BME280;23738;50.422;18.758;2023-03-03T10:44:37;98881.39;;;0.03;76.38
37904;BME280;23738;50.422;18.758;2023-03-03T10:47:21;98877.96;;;-0.02;76.09
37904;BME280;23738;50.422;18.758;2023-03-03T10:50:00;98877.65;;;-0.02;75.83
37904;BME280;23738;50.422;18.758;2023-03-03T10:52:36;98875.62;;;-0.01;75.93
37904;BME280;23738;50.422;18.758;2023-03-03T10:55:36;98874.19;;;-0.00;75.92
37904;BME280;23738;50.422;18.758;2023-03-03T11:01:15;98873.92;;;0.09;76.08
37904;BME280;23738;50.422;18.758;2023-03-03T11:04:05;98871.38;;;0.11;76.15
37904;BME280;23738;50.422;18.758;2023-03-03T11:06:44;98868.10;;;0.15;75.95
37904;BME280;23738;50.422;18.758;2023-03-03T11:09:33;98866.03;;;0.24;75.91
37904;BME280;23738;50.422;18.758;2023-03-03T11:12:14;98864.02;;;0.33;75.96
37904;BME280;23738;50.422;18.758;2023-03-03T11:14:48;98859.20;;;0.39;75.85
37904;BME280;23738;50.422;18.758;2023-03-03T11:17:22;98861.16;;;0.44;76.05
37904;BME280;23738;50.422;18.758;2023-03-03T11:20:02;98857.08;;;0.48;75.99
37904;BME280;23738;50.422;18.758;2023-03-03T11:22:36;98858.30;;;0.51;76.06
37904;BME280;23738;50.422;18.758;2023-03-03T11:25:15;98849.16;;;0.51;76.03
37904;BME280;23738;50.422;18.758;2023-03-03T11:27:57;98850.13;;;0.58;75.94
37904;BME280;23738;50.422;18.758;2023-03-03T11:30:38;98849.79;;;0.66;75.95
37904;BME280;23738;50.422;18.758;2023-03-03T11:33:14;98851.29;;;0.71;75.93
37904;BME280;23738;50.422;18.758;2023-03-03T11:35:47;98851.25;;;0.75;75.95
37904;BME280;23738;50.422;18.758;2023-03-03T11:38:32;98851.75;;;0.75;76.10
37904;BME280;23738;50.422;18.758;2023-03-03T11:41:06;98852.37;;;0.74;75.91
37904;BME280;23738;50.422;18.758;2023-03-03T11:43:37;98853.50;;;0.75;76.06
37904;BME280;23738;50.422;18.758;2023-03-03T11:46:10;98854.00;;;0.78;75.81
37904;BME280;23738;50.422;18.758;2023-03-03T11:48:46;98854.16;;;0.84;75.77
37904;BME280;23738;50.422;18.758;2023-03-03T11:51:22;98854.81;;;0.91;75.95
37904;BME280;23738;50.422;18.758;2023-03-03T11:54:04;98850.61;;;0.95;75.80
37904;BME280;23738;50.422;18.758;2023-03-03T11:56:37;98848.02;;;0.99;75.70
37904;BME280;23738;50.422;18.758;2023-03-03T12:02:26;98849.54;;;1.03;75.72
37904;BME280;23738;50.422;18.758;2023-03-03T12:05:03;98849.00;;;1.07;75.67
37904;BME280;23738;50.422;18.758;2023-03-03T12:07:39;98843.36;;;1.15;75.82
37904;BME280;23738;50.422;18.758;2023-03-03T12:10:25;98840.57;;;1.23;75.68
37904;BME280;23738;50.422;18.758;2023-03-03T12:13:00;98839.10;;;1.28;75.68
37904;BME280;23738;50.422;18.758;2023-03-03T12:15:34;98839.22;;;1.32;75.57
37904;BME280;23738;50.422;18.758;2023-03-03T12:18:29;98829.98;;;1.35;75.61
37904;BME280;23738;50.422;18.758;2023-03-03T12:21:12;98835.38;;;1.38;75.58
37904;BME280;23738;50.422;18.758;2023-03-03T12:23:59;98832.21;;;1.43;75.63
37904;BME280;23738;50.422;18.758;2023-03-03T12:26:34;98831.27;;;1.47;75.20
37904;BME280;23738;50.422;18.758;2023-03-03T12:29:10;98829.41;;;1.49;75.17
37904;BME280;23738;50.422;18.758;2023-03-03T12:31:46;98828.21;;;1.49;75.29
37904;BME280;23738;50.422;18.758;2023-03-03T12:34:22;98826.48;;;1.51;75.60
37904;BME280;23738;50.422;18.758;2023-03-03T12:37:18;98824.92;;;1.52;75.42
37904;BME280;23738;50.422;18.758;2023-03-03T12:39:57;98826.99;;;1.55;75.17
37904;BME280;23738;50.422;18.758;2023-03-03T12:42:34;98826.11;;;1.63;75.39
37904;BME280;23738;50.422;18.758;2023-03-03T12:45:13;98823.42;;;1.68;75.22
37904;BME280;23738;50.422;18.758;2023-03-03T12:47:48;98824.90;;;1.71;75.14
37904;BME280;23738;50.422;18.758;2023-03-03T12:50:26;98820.02;;;1.69;75.25
37904;BME280;23738;50.422;18.758;2023-03-03T12:53:02;98815.61;;;1.64;75.07
37904;BME280;23738;50.422;18.758;2023-03-03T12:55:41;98816.55;;;1.59;75.22
37904;BME280;23738;50.422;18.758;2023-03-03T12:58:19;98814.91;;;1.58;75.06
37904;BME280;23738;50.422;18.758;2023-03-03T13:00:55;98812.88;;;1.59;75.15
37904;BME280;23738;50.422;18.758;2023-03-03T13:03:37;98813.53;;;1.60;75.10
37904;BME280;23738;50.422;18.758;2023-03-03T13:06:13;98817.50;;;1.60;74.90
37904;BME280;23738;50.422;18.758;2023-03-03T13:08:57;98818.95;;;1.63;75.16
37904;BME280;23738;50.422;18.758;2023-03-03T13:11:38;98816.68;;;1.69;75.44
37904;BME280;23738;50.422;18.758;2023-03-03T13:14:20;98807.19;;;1.66;74.83
37904;BME280;23738;50.422;18.758;2023-03-03T13:16:57;98811.80;;;1.65;74.81
37904;BME280;23738;50.422;18.758;2023-03-03T13:19:32;98810.86;;;1.61;74.78
37904;BME280;23738;50.422;18.758;2023-03-03T13:22:08;98809.39;;;1.58;74.81
37904;BME280;23738;50.422;18.758;2023-03-03T13:24:52;98811.02;;;1.55;74.64
37904;BME280;23738;50.422;18.758;2023-03-03T13:27:24;98811.73;;;1.50;74.65